Time;durP1;ratioP1;P1;durP2;ratioP2;P2;SDS_P1;SDS_P2;PMS_P1;PMS_P2;Temp;Humidity;BMP_temperature;BMP_pressure;BME280_temperature;BME280_humidity;BME280_pressure;Samples;Min_cycle;Max_cycle;Signal;HPM_P1;HPM_P2
2022/06/18 14:26:51;;;;;;;18.20;5.68;;;;;;;37.79;29.14;101290.53;5069965;28;20387;-63
2022/06/18 14:29:19;;;;;;;17.65;5.55;;;;;;;37.73;27.95;101292.00;5070511;28;20063;-63
2022/06/18 14:38:13;;;;;;;12.15;5.20;;;;;;;37.70;28.10;101289.53;5070182;28;20019;-63
2022/06/18 14:43:47;;;;;;;15.57;5.80;;;;;;;37.28;30.57;101281.59;5070674;28;20040;-63
2022/06/18 14:46:41;;;;;;;19.70;5.90;;;;;;;36.92;30.59;101274.00;5070036;28;20466;-63
2022/06/18 14:49:31;;;;;;;18.42;5.88;;;;;;;36.91;30.66;101269.53;5054511;28;20509;-63
2022/06/18 14:51:56;;;;;;;17.17;5.85;;;;;;;36.79;31.24;101269.69;5070031;28;20056;-63
2022/06/18 14:54:39;;;;;;;23.52;5.95;;;;;;;36.44;31.42;101267.44;5070153;28;20120;-63
2022/06/18 14:57:40;;;;;;;18.95;5.70;;;;;;;36.37;31.79;101266.25;5070403;28;20035;-64
2022/06/18 15:00:21;;;;;;;13.85;5.15;;;;;;;36.41;31.91;101267.69;5070009;28;20025;-62
2022/06/18 15:02:53;;;;;;;16.77;5.70;;;;;;;36.23;31.18;101263.84;5069797;28;20312;-63
2022/06/18 15:05:25;;;;;;;16.02;5.55;;;;;;;36.11;32.20;101254.88;5069799;28;20546;-63
2022/06/18 15:07:51;;;;;;;15.32;5.60;;;;;;;36.15;31.88;101256.31;5069898;28;20114;-63
2022/06/18 15:10:20;;;;;;;15.18;5.68;;;;;;;36.26;30.88;101249.81;5069880;28;20475;-63
2022/06/18 15:12:51;;;;;;;21.80;5.30;;;;;;;36.17;31.59;101243.28;5069761;28;20029;-63
2022/06/18 15:15:26;;;;;;;17.40;5.50;;;;;;;36.38;31.19;101243.19;5069812;28;20469;-63
2022/06/18 15:18:15;;;;;;;20.33;5.75;;;;;;;36.16;31.34;101243.44;5069939;28;20029;-63
2022/06/18 15:23:18;;;;;;;16.52;5.70;;;;;;;36.01;31.89;101248.44;5069487;28;20431;-63
2022/06/18 15:25:43;;;;;;;17.98;5.93;;;;;;;36.04;31.88;101238.03;5069197;28;20048;-64
2022/06/18 15:28:19;;;;;;;16.38;5.10;;;;;;;35.91;32.28;101237.38;5069276;28;20037;-63
2022/06/18 15:30:49;;;;;;;19.13;5.60;;;;;;;35.68;31.61;101231.19;5069417;28;20024;-63
2022/06/18 15:33:18;;;;;;;14.48;5.60;;;;;;;35.44;31.88;101228.69;5069298;28;20056;-63
2022/06/18 15:35:47;;;;;;;18.52;5.60;;;;;;;35.27;32.65;101227.44;5068185;28;20075;-64
2022/06/18 15:38:35;;;;;;;15.30;5.60;;;;;;;35.46;33.08;101220.31;5055584;28;20105;-63
2022/06/18 15:41:05;;;;;;;19.77;5.90;;;;;;;35.50;33.33;101225.44;5056620;28;20439;-63
2022/06/18 15:43:35;;;;;;;14.38;5.32;;;;;;;35.44;32.03;101214.09;5056068;28;20060;-63
2022/06/18 15:46:05;;;;;;;16.45;5.70;;;;;;;35.33;31.23;101215.91;5055948;28;20021;-63
2022/06/18 15:48:46;;;;;;;13.43;5.50;;;;;;;35.28;32.51;101217.31;5055929;28;20485;-63
2022/06/18 15:51:28;;;;;;;16.20;6.40;;;;;;;35.27;32.67;101205.44;5056031;28;20016;-63
2022/06/18 15:54:01;;;;;;;17.85;5.63;;;;;;;35.42;32.46;101197.75;5055621;28;20463;-63
2022/06/18 15:56:31;;;;;;;21.20;5.57;;;;;;;35.36;32.66;101199.13;5054159;28;20491;-63
2022/06/18 15:58:57;;;;;;;18.00;6.20;;;;;;;35.17;32.71;101190.78;5054339;28;20078;-63
2022/06/18 16:01:23;;;;;;;15.63;5.78;;;;;;;34.98;32.54;101194.25;5055389;28;20056;-63
2022/06/18 16:03:50;;;;;;;16.70;6.45;;;;;;;34.80;33.67;101193.94;5054916;28;20033;-63
2022/06/18 16:06:20;;;;;;;21.88;7.00;;;;;;;34.74;33.32;101183.50;5055578;28;20025;-63
2022/06/18 16:09:14;;;;;;;14.85;5.70;;;;;;;34.74;33.23;101175.25;5055347;28;20024;-63
2022/06/18 16:11:42;;;;;;;18.00;5.70;;;;;;;34.39;33.70;101165.41;5055065;28;20115;-62
2022/06/18 16:14:10;;;;;;;16.65;5.85;;;;;;;34.28;34.70;101159.06;5055265;28;20032;-63
2022/06/18 16:16:46;;;;;;;17.25;5.13;;;;;;;34.26;34.90;101153.72;5055363;28;20033;-62
2022/06/18 16:19:13;;;;;;;19.67;5.45;;;;;;;34.13;35.86;101152.97;5055417;28;20025;-63
2022/06/18 16:21:46;;;;;;;17.05;5.03;;;;;;;34.11;36.24;101155.00;5055259;28;20032;-63
2022/06/18 16:24:18;;;;;;;11.77;4.60;;;;;;;34.09;36.41;101146.00;5055331;28;20095;-63
2022/06/18 16:26:48;;;;;;;13.05;4.43;;;;;;;34.02;36.10;101153.03;5055270;28;20055;-63
2022/06/18 16:29:16;;;;;;;14.88;4.60;;;;;;;33.92;35.81;101150.16;5054980;28;20529;-63
2022/06/18 16:31:43;;;;;;;15.95;4.75;;;;;;;33.76;36.30;101142.31;5055338;28;20475;-63
2022/06/18 16:34:12;;;;;;;16.92;4.57;;;;;;;33.69;37.24;101148.41;5054821;28;20426;-63
2022/06/18 16:37:05;;;;;;;13.70;4.30;;;;;;;33.69;36.99;101152.03;5053794;28;20120;-63
2022/06/18 16:39:45;;;;;;;13.95;4.55;;;;;;;33.47;37.49;101152.91;5054858;28;20029;-63
2022/06/18 16:42:33;;;;;;;10.75;4.20;;;;;;;33.34;37.96;101147.50;5054846;28;20025;-63
2022/06/18 16:45:16;;;;;;;12.50;4.07;;;;;;;33.27;37.59;101146.25;5054706;28;20037;-63
2022/06/18 16:47:42;;;;;;;13.00;4.40;;;;;;;33.00;38.65;101151.19;5054139;28;20359;-63
2022/06/18 16:50:15;;;;;;;13.88;4.00;;;;;;;32.99;38.39;101146.72;5054333;28;20025;-63
2022/06/18 16:52:41;;;;;;;10.25;4.20;;;;;;;32.96;38.56;101146.94;5054584;28;20033;-63
2022/06/18 16:55:38;;;;;;;11.75;4.00;;;;;;;32.95;38.74;101147.94;5054567;28;20043;-63
2022/06/18 16:58:18;;;;;;;12.98;4.25;;;;;;;32.71;39.87;101150.69;5046095;28;20567;-63
2022/06/18 17:00:49;;;;;;;11.45;3.80;;;;;;;32.54;40.32;101141.03;5054579;28;20371;-65
2022/06/18 17:03:17;;;;;;;8.88;3.38;;;;;;;32.50;40.10;101143.13;5054080;28;20029;-64
2022/06/18 17:05:43;;;;;;;10.18;3.20;;;;;;;32.44;41.03;101140.88;5054243;28;20025;-63
2022/06/18 17:08:10;;;;;;;9.80;3.65;;;;;;;32.19;42.06;101136.38;5053408;28;20029;-63
2022/06/18 17:10:36;;;;;;;12.57;3.50;;;;;;;32.04;41.54;101130.22;5054217;28;20478;-63
2022/06/18 17:13:03;;;;;;;11.00;3.13;;;;;;;32.01;42.13;101129.56;5054101;28;20371;-64
2022/06/18 17:15:28;;;;;;;11.63;3.42;;;;;;;31.81;42.56;101129.13;5054233;28;20540;-63
2022/06/18 17:17:54;;;;;;;13.13;3.60;;;;;;;31.89;42.39;101124.00;5054065;28;20048;-63
2022/06/18 17:20:22;;;;;;;11.60;3.33;;;;;;;31.64;43.10;101126.78;5052738;28;20108;-63
2022/06/18 17:22:50;;;;;;;12.52;3.22;;;;;;;31.64;43.10;101124.91;5054142;28;20036;-64
2022/06/18 17:33:32;;;;;;;8.30;3.40;;;;;;;31.46;43.70;101126.25;5054174;28;20040;-64
2022/06/18 17:36:01;;;;;;;9.25;3.22;;;;;;;31.52;43.29;101122.19;5054025;28;20029;-64
2022/06/18 17:38:29;;;;;;;10.90;3.42;;;;;;;31.33;44.20;101129.00;5053760;28;20029;-64
2022/06/18 17:41:03;;;;;;;10.68;3.60;;;;;;;31.23;44.32;101116.09;5053662;28;20356;-63
2022/06/18 17:43:33;;;;;;;7.70;3.40;;;;;;;31.22;44.11;101115.25;5053533;28;20482;-64
2022/06/18 17:45:59;;;;;;;11.70;3.35;;;;;;;31.08;44.08;101123.50;5053833;28;20061;-64
2022/06/18 17:48:25;;;;;;;9.20;3.20;;;;;;;31.16;44.41;101104.75;5053603;28;20548;-64
2022/06/18 17:50:53;;;;;;;7.57;3.40;;;;;;;31.01;43.30;101101.25;5053674;28;20029;-64
2022/06/18 17:53:20;;;;;;;8.90;3.30;;;;;;;30.85;44.75;101092.41;5053497;28;20507;-64
2022/06/18 17:55:46;;;;;;;11.88;3.63;;;;;;;30.86;44.11;101092.28;5053725;28;20104;-63
2022/06/18 17:58:12;;;;;;;8.55;3.20;;;;;;;30.88;44.63;101086.72;5053896;28;20450;-64
2022/06/18 18:00:40;;;;;;;9.50;3.42;;;;;;;30.76;44.73;101084.88;5053879;28;20058;-64
2022/06/18 18:03:05;;;;;;;9.25;3.42;;;;;;;30.74;43.91;101081.34;5053516;28;20052;-64
2022/06/18 18:05:31;;;;;;;12.43;3.53;;;;;;;30.53;45.04;101073.66;5053407;28;20467;-64
2022/06/18 18:07:56;;;;;;;7.50;3.35;;;;;;;30.53;44.52;101076.38;5053402;28;20056;-63
2022/06/18 18:10:21;;;;;;;11.98;3.53;;;;;;;30.53;45.04;101073.66;5053759;28;20025;-64
2022/06/18 18:12:47;;;;;;;10.48;3.70;;;;;;;30.51;45.39;101075.63;5053698;28;20029;-64
2022/06/18 18:15:16;;;;;;;10.00;3.30;;;;;;;30.31;45.73;101070.66;5052719;28;20430;-64
2022/06/18 18:17:52;;;;;;;8.00;3.33;;;;;;;30.30;45.79;101080.69;5053365;28;20021;-64
2022/06/18 18:20:27;;;;;;;10.35;3.60;;;;;;;30.28;45.75;101071.75;5053212;28;20422;-64
2022/06/18 18:22:52;;;;;;;14.63;3.70;;;;;;;30.16;45.88;101075.31;5053511;28;20017;-64
2022/06/18 18:25:18;;;;;;;8.65;3.47;;;;;;;30.05;46.18;101070.53;5052850;28;20041;-64
2022/06/18 18:27:46;;;;;;;8.52;3.50;;;;;;;30.00;46.66;101072.72;5053426;28;20075;-63
2022/06/18 18:30:14;;;;;;;8.82;3.25;;;;;;;29.84;46.57;101061.94;5051912;28;20027;-64
2022/06/18 18:32:40;;;;;;;7.10;3.30;;;;;;;29.79;46.65;101061.38;5052983;28;20031;-64
2022/06/18 18:35:07;;;;;;;11.10;3.58;;;;;;;29.76;47.10;101061.56;5052942;28;20486;-64
2022/06/18 18:37:33;;;;;;;7.90;3.10;;;;;;;29.85;46.81;101062.81;5052866;28;20447;-64
2022/06/18 18:39:58;;;;;;;13.40;3.42;;;;;;;29.75;46.93;101058.97;5052910;28;20104;-64
2022/06/18 18:42:25;;;;;;;9.80;3.58;;;;;;;29.80;46.66;101056.81;5052896;28;20044;-64
2022/06/18 18:44:50;;;;;;;10.55;3.60;;;;;;;29.77;46.46;101057.03;5053152;28;20108;-64
2022/06/18 18:47:17;;;;;;;7.65;3.10;;;;;;;29.44;47.35;101060.94;5053041;28;20113;-64
2022/06/18 18:49:42;;;;;;;8.63;3.63;;;;;;;29.46;47.29;101045.38;5053398;28;20053;-64
2022/06/18 18:52:09;;;;;;;8.50;3.30;;;;;;;29.39;47.83;101042.19;5052742;28;20505;-64
2022/06/18 18:54:35;;;;;;;8.65;3.65;;;;;;;29.32;47.76;101038.09;5052907;28;20074;-64
2022/06/18 18:57:01;;;;;;;13.07;3.30;;;;;;;29.20;47.93;101036.16;5052901;28;20052;-64
2022/06/18 18:59:27;;;;;;;10.00;3.60;;;;;;;29.15;48.18;101032.88;5052958;28;20485;-64
2022/06/18 19:01:52;;;;;;;10.15;3.30;;;;;;;29.17;48.39;101026.38;5052847;28;20100;-65
2022/06/18 19:04:18;;;;;;;7.93;3.42;;;;;;;29.12;48.46;101024.91;5051305;28;20116;-65
2022/06/18 19:06:45;;;;;;;16.08;3.70;;;;;;;29.06;48.54;101019.88;5052659;28;20040;-65
2022/06/18 19:09:11;;;;;;;11.10;3.53;;;;;;;28.95;49.44;101020.53;5052783;28;20029;-65
2022/06/18 19:13:02;;;;;;;8.93;3.60;;;;;;;28.89;48.97;101018.19;5053877;28;20032;-64
2022/06/18 19:14:22;;;;;;;12.63;3.65;;;;;;;28.86;49.01;101005.63;5056310;28;20048;-65
2022/06/18 19:16:48;;;;;;;8.68;3.30;;;;;;;28.89;49.00;101012.75;5056619;28;20029;-63
2022/06/18 19:19:13;;;;;;;8.80;3.00;;;;;;;28.91;48.70;101002.66;5056419;28;20037;-64
2022/06/18 19:21:39;;;;;;;9.35;3.25;;;;;;;28.88;49.04;100997.41;5054905;28;20027;-64
2022/06/18 19:24:05;;;;;;;9.52;3.42;;;;;;;28.80;49.52;100999.72;5056315;28;20028;-64
2022/06/18 19:26:33;;;;;;;8.02;3.10;;;;;;;28.82;49.69;100995.03;5055913;28;20136;-64
2022/06/18 19:29:01;;;;;;;8.40;3.33;;;;;;;28.79;49.40;100998.84;5056153;28;20040;-64
2022/06/18 19:31:27;;;;;;;12.80;3.30;;;;;;;28.77;49.54;100994.47;5055972;28;20025;-64
2022/06/18 19:33:52;;;;;;;12.70;3.58;;;;;;;28.62;50.15;100990.88;5056344;28;20025;-65
2022/06/18 19:36:19;;;;;;;11.43;3.58;;;;;;;28.57;50.22;100987.56;5055976;28;20479;-64
2022/06/18 19:38:45;;;;;;;13.75;3.70;;;;;;;28.58;50.30;100983.88;5055792;28;20040;-64
2022/06/18 19:41:16;;;;;;;10.18;3.55;;;;;;;28.60;49.91;100984.63;5056186;28;20021;-64
2022/06/18 19:43:42;;;;;;;10.77;3.57;;;;;;;28.62;50.02;100997.19;5055759;28;20059;-64
2022/06/18 19:46:09;;;;;;;13.25;4.95;;;;;;;28.57;50.22;100990.28;5056111;28;20329;-67
2022/06/18 19:48:38;;;;;;;11.45;4.22;;;;;;;28.52;50.33;100989.69;5055788;28;20382;-63
2022/06/18 19:51:08;;;;;;;11.18;4.05;;;;;;;28.44;50.63;100993.78;5055558;28;20029;-67
2022/06/18 19:53:34;;;;;;;8.88;3.78;;;;;;;28.34;50.98;100983.50;5055871;28;20091;-66
2022/06/18 19:56:00;;;;;;;9.40;3.72;;;;;;;28.27;50.58;100976.72;5055631;28;20068;-66
2022/06/18 19:58:25;;;;;;;13.88;4.10;;;;;;;28.16;50.92;100983.66;5055823;28;20057;-66
2022/06/18 20:00:51;;;;;;;7.32;3.72;;;;;;;28.18;50.64;100989.03;5055432;28;20450;-65
2022/06/18 20:03:16;;;;;;;11.52;3.90;;;;;;;28.07;51.06;100986.94;5055508;28;20021;-67
2022/06/18 20:05:42;;;;;;;14.38;4.30;;;;;;;28.10;50.67;100984.03;5055423;28;20386;-66
2022/06/18 20:08:08;;;;;;;8.52;3.83;;;;;;;28.03;50.25;100987.22;5055570;28;20449;-66
2022/06/18 20:10:36;;;;;;;8.55;3.90;;;;;;;28.11;50.20;100985.78;5055241;28;20037;-66
2022/06/18 20:13:02;;;;;;;8.98;3.70;;;;;;;27.95;50.71;100974.94;5055289;28;20020;-67
2022/06/18 20:15:29;;;;;;;9.88;3.40;;;;;;;27.83;50.38;100970.25;5055350;28;20032;-66
2022/06/18 20:17:55;;;;;;;10.43;3.90;;;;;;;27.65;50.31;100964.03;5055364;28;20029;-66
2022/06/18 20:20:22;;;;;;;11.50;3.88;;;;;;;27.58;51.16;100961.75;5055470;28;20029;-66
2022/06/18 20:22:48;;;;;;;7.00;3.65;;;;;;;27.43;51.12;100956.28;5055156;28;20052;-68
2022/06/18 20:25:14;;;;;;;10.68;3.90;;;;;;;27.34;51.23;100961.38;5055168;28;20091;-66
2022/06/18 20:27:40;;;;;;;11.48;3.55;;;;;;;27.17;52.29;100957.78;5055008;28;20025;-66
2022/06/18 20:30:08;;;;;;;8.27;3.67;;;;;;;27.02;52.51;100963.13;5054986;28;20021;-66
2022/06/18 20:32:38;;;;;;;8.55;3.20;;;;;;;27.03;52.94;100959.50;5055209;28;20059;-66
2022/06/18 20:35:09;;;;;;;13.45;3.67;;;;;;;26.95;53.16;100954.47;5055372;28;20139;-67
2022/06/18 20:37:35;;;;;;;7.70;3.80;;;;;;;27.00;53.20;100948.81;5055310;28;20029;-67
2022/06/18 20:40:00;;;;;;;9.20;3.70;;;;;;;26.96;53.13;100957.09;5055097;28;20029;-66
2022/06/18 20:42:26;;;;;;;7.75;3.67;;;;;;;26.79;53.48;100945.44;5055243;28;20063;-66
2022/06/18 20:44:51;;;;;;;12.38;3.42;;;;;;;26.48;53.84;100940.84;5053716;28;20536;-66
2022/06/18 20:47:17;;;;;;;9.55;3.00;;;;;;;26.33;54.40;100948.78;5055616;28;20079;-65
2022/06/18 20:49:44;;;;;;;7.88;3.00;;;;;;;26.15;54.66;100942.50;5054809;28;20494;-66
2022/06/18 20:52:14;;;;;;;6.85;2.70;;;;;;;26.06;54.94;100942.13;5054637;28;20398;-66
2022/06/18 20:57:25;;;;;;;9.07;3.00;;;;;;;25.83;54.83;100954.16;5054633;28;20056;-67
2022/06/18 20:59:53;;;;;;;11.40;2.97;;;;;;;25.69;54.81;100947.53;5055190;28;20017;-66
2022/06/18 21:02:30;;;;;;;9.15;2.72;;;;;;;25.58;55.01;100957.19;5054707;28;20116;-66
2022/06/18 21:04:58;;;;;;;15.15;2.80;;;;;;;25.51;55.16;100961.13;5054792;28;20029;-65
2022/06/18 21:07:29;;;;;;;8.38;2.80;;;;;;;25.40;55.45;100970.66;5053321;28;20115;-66
2022/06/18 21:09:54;;;;;;;7.35;2.50;;;;;;;25.45;55.57;100973.13;5054099;28;20440;-67
2022/06/18 21:12:20;;;;;;;6.90;2.70;;;;;;;25.41;55.22;100974.25;5054464;28;20482;-66
2022/06/18 21:14:46;;;;;;;7.05;2.88;;;;;;;25.32;55.03;100980.97;5054168;28;20029;-66
2022/06/18 21:17:13;;;;;;;12.40;3.05;;;;;;;25.11;55.39;100977.47;5054389;28;20017;-66
2022/06/18 21:19:39;;;;;;;7.10;2.67;;;;;;;25.09;55.31;100978.47;5054014;28;20029;-66
2022/06/18 21:22:05;;;;;;;7.07;2.80;;;;;;;24.91;55.24;100974.78;5053005;28;20025;-66
2022/06/18 21:24:33;;;;;;;7.75;2.75;;;;;;;24.76;55.37;100973.69;5052670;28;20456;-67
2022/06/18 21:26:58;;;;;;;9.65;2.80;;;;;;;24.95;55.14;100977.28;5052156;28;20372;-67
2022/06/18 21:29:26;;;;;;;8.75;2.97;;;;;;;24.78;55.14;100979.00;5053932;28;20033;-66
2022/06/18 21:37:22;;;;;;;9.95;3.00;;;;;;;24.80;54.63;100966.31;5054112;28;20051;-66
2022/06/18 21:39:48;;;;;;;10.05;2.83;;;;;;;24.73;54.38;100961.19;5053685;28;20029;-66
2022/06/18 21:42:16;;;;;;;11.68;2.95;;;;;;;24.46;54.72;100957.94;5053873;28;20036;-66
2022/06/18 21:44:43;;;;;;;8.30;2.70;;;;;;;24.19;54.79;100954.59;5054351;28;20059;-67
2022/06/18 21:47:10;;;;;;;11.15;3.17;;;;;;;24.10;55.37;100949.59;5053724;28;20086;-66
2022/06/18 21:49:36;;;;;;;8.57;3.10;;;;;;;24.03;55.58;100945.44;5053350;28;20067;-67
2022/06/18 21:52:03;;;;;;;9.68;2.85;;;;;;;23.88;55.51;100941.56;5054154;28;20038;-66
2022/06/18 21:54:29;;;;;;;10.77;3.00;;;;;;;23.73;56.01;100932.31;5053756;28;20448;-66
2022/06/18 21:57:11;;;;;;;14.00;3.00;;;;;;;23.79;55.80;100935.69;5053734;28;20048;-66
2022/06/18 21:59:41;;;;;;;9.57;2.75;;;;;;;23.74;56.15;100933.19;5053473;28;20498;-65
2022/06/18 22:02:07;;;;;;;10.30;2.95;;;;;;;23.68;56.20;100933.41;5053427;28;20024;-65
2022/06/18 22:04:33;;;;;;;7.28;2.85;;;;;;;23.64;56.50;100927.28;5052265;28;20029;-66
2022/06/18 22:06:59;;;;;;;8.05;2.80;;;;;;;23.58;56.80;100926.63;5053797;28;20032;-64
2022/06/18 22:09:24;;;;;;;8.23;2.63;;;;;;;23.66;56.38;100932.63;5051957;28;20426;-65
2022/06/18 22:17:20;;;;;;;15.10;3.15;;;;;;;23.68;56.68;100950.50;5053733;28;20035;-63
2022/06/18 22:19:45;;;;;;;10.23;2.90;;;;;;;23.67;56.63;100942.47;5053401;28;20048;-63
2022/06/18 22:22:11;;;;;;;7.72;2.80;;;;;;;23.65;55.90;100944.38;5053251;28;20118;-63
2022/06/18 22:24:36;;;;;;;8.30;2.95;;;;;;;23.60;55.95;100943.66;5053130;28;20028;-63
2022/06/18 22:27:02;;;;;;;9.45;2.83;;;;;;;23.46;56.16;100938.81;5052736;28;20053;-64
2022/06/18 22:29:27;;;;;;;13.10;2.90;;;;;;;23.36;56.51;100937.44;5053168;28;20029;-64
2022/06/18 22:31:54;;;;;;;6.40;2.70;;;;;;;23.27;56.28;100933.28;5053076;28;20017;-63
2022/06/18 22:34:19;;;;;;;9.63;2.80;;;;;;;23.10;56.28;100925.00;5053370;28;20470;-64
2022/06/18 22:36:47;;;;;;;10.18;2.63;;;;;;;22.94;56.10;100931.00;5053049;28;20040;-63
2022/06/18 22:39:13;;;;;;;8.57;2.75;;;;;;;22.81;56.66;100926.13;5053000;28;20048;-63
2022/06/18 22:41:42;;;;;;;6.75;2.50;;;;;;;22.70;56.62;100938.19;5053077;28;20059;-64
2022/06/18 22:44:17;;;;;;;6.75;2.45;;;;;;;22.70;56.46;100937.31;5053123;28;20029;-64
2022/06/18 22:46:45;;;;;;;8.65;2.67;;;;;;;22.64;56.63;100929.44;5054089;28;20021;-63
2022/06/18 22:49:15;;;;;;;7.97;2.65;;;;;;;22.60;56.64;100933.19;5057123;28;20033;-64
2022/06/18 22:51:41;;;;;;;7.03;2.50;;;;;;;22.72;56.50;100922.84;5057141;28;20394;-64
2022/06/18 22:54:09;;;;;;;10.45;2.80;;;;;;;22.77;56.14;100922.66;5056597;28;20037;-63
2022/06/18 22:56:35;;;;;;;8.45;2.70;;;;;;;22.59;56.23;100909.91;5057013;28;20025;-64
2022/06/18 22:59:01;;;;;;;8.90;2.70;;;;;;;22.32;56.17;100899.22;5056894;28;20129;-64
2022/06/18 23:01:26;;;;;;;7.90;2.60;;;;;;;22.12;56.93;100905.34;5056583;28;20033;-64
2022/06/18 23:03:52;;;;;;;8.02;2.50;;;;;;;21.96;56.95;100888.81;5056972;28;20035;-64
2022/06/18 23:06:19;;;;;;;12.07;2.83;;;;;;;21.70;57.48;100888.84;5056662;28;20037;-63
2022/06/18 23:08:52;;;;;;;8.98;2.78;;;;;;;21.60;57.57;100892.81;5056560;28;20029;-64
2022/06/18 23:14:07;;;;;;;10.02;2.80;;;;;;;21.42;58.57;100871.00;5056706;28;20410;-64
2022/06/18 23:16:32;;;;;;;8.70;2.78;;;;;;;21.23;58.02;100859.94;5056790;28;20029;-64
2022/06/18 23:19:00;;;;;;;9.65;2.67;;;;;;;21.23;58.52;100862.63;5056366;28;20437;-64
2022/06/18 23:21:27;;;;;;;11.15;3.10;;;;;;;21.24;57.88;100855.41;5056348;28;20058;-63
2022/06/18 23:23:53;;;;;;;9.57;2.90;;;;;;;21.14;57.95;100845.91;5055073;28;20029;-64
2022/06/18 23:26:18;;;;;;;9.20;2.55;;;;;;;21.12;58.10;100835.22;5056161;28;20060;-64
2022/06/18 23:28:43;;;;;;;11.25;2.97;;;;;;;21.12;58.46;100826.31;5056252;28;20029;-64
2022/06/18 23:31:10;;;;;;;13.73;3.08;;;;;;;21.04;58.04;100817.59;5056156;28;20033;-63
2022/06/18 23:33:39;;;;;;;7.90;2.70;;;;;;;20.96;57.96;100805.28;5056118;28;20041;-63
2022/06/18 23:36:05;;;;;;;14.77;2.92;;;;;;;20.96;57.93;100810.66;5055897;28;20083;-64
2022/06/18 23:38:32;;;;;;;9.27;2.78;;;;;;;20.93;58.56;100799.13;5056513;28;20032;-63
2022/06/18 23:40:57;;;;;;;9.48;2.90;;;;;;;20.92;58.04;100800.06;5056041;28;20120;-64
2022/06/18 23:43:23;;;;;;;15.63;2.95;;;;;;;21.11;58.58;100790.50;5055968;28;20092;-64
2022/06/18 23:45:49;;;;;;;8.20;2.90;;;;;;;20.84;57.50;100786.00;5056063;28;20494;-64
2022/06/18 23:48:15;;;;;;;10.60;2.80;;;;;;;20.84;57.77;100783.31;5055787;28;20029;-64
2022/06/18 23:50:41;;;;;;;14.70;2.85;;;;;;;20.94;57.49;100782.09;5054551;28;20033;-64
2022/06/18 23:53:10;;;;;;;12.23;2.88;;;;;;;20.72;57.74;100773.84;5055691;28;20074;-64
2022/06/18 23:55:38;;;;;;;8.38;2.47;;;;;;;20.69;57.48;100760.56;5055632;28;20404;-63
2022/06/18 23:58:07;;;;;;;13.35;2.90;;;;;;;20.58;57.49;100766.25;5055198;28;20086;-63
